createdAt,value
2023-04-11T00:00:51.615Z,19.1
2023-04-11T00:01:57.763Z,19.1
2023-04-11T00:03:03.848Z,19.1
2023-04-11T00:04:09.957Z,19.1
2023-04-11T00:05:16.123Z,19.1
2023-04-11T00:06:22.188Z,19.1
2023-04-11T00:07:28.308Z,19.1
2023-04-11T00:08:34.418Z,19.1
2023-04-11T00:09:40.528Z,19.1
2023-04-11T00:10:45.667Z,19.1
2023-04-11T00:11:51.768Z,19.1
2023-04-11T00:12:57.894Z,19.1
2023-04-11T00:14:04.001Z,19.1
2023-04-11T00:15:10.111Z,19.1
2023-04-11T00:16:16.226Z,19.1
2023-04-11T00:17:22.347Z,19.1
2023-04-11T00:18:27.487Z,19.1
2023-04-11T00:19:32.607Z,19.1
2023-04-11T00:20:37.741Z,19.1
2023-04-11T00:21:42.878Z,19.1
2023-04-11T00:22:48.990Z,19.1
2023-04-11T00:23:55.101Z,19.1
2023-04-11T00:25:01.224Z,19.1
2023-04-11T00:26:07.333Z,19.1
2023-04-11T00:27:13.449Z,19.1
2023-04-11T00:28:19.556Z,19.1
2023-04-11T00:29:25.681Z,19
2023-04-11T00:30:31.776Z,19.1
2023-04-11T00:31:37.892Z,19.1
2023-04-11T00:32:44.022Z,19.1
2023-04-11T00:33:50.126Z,19.1
2023-04-11T00:34:56.254Z,19.1
2023-04-11T00:36:01.388Z,19
2023-04-11T00:37:07.488Z,19.1
2023-04-11T00:38:13.598Z,19
2023-04-11T00:39:19.710Z,19
2023-04-11T00:40:25.825Z,19
2023-04-11T00:41:31.941Z,19
2023-04-11T00:42:38.083Z,19
2023-04-11T00:43:43.186Z,19
2023-04-11T00:44:48.316Z,19
2023-04-11T00:45:54.420Z,19
2023-04-11T00:47:00.563Z,19
2023-04-11T00:48:06.657Z,19
2023-04-11T00:49:12.768Z,19
2023-04-11T00:50:18.882Z,19.1
2023-04-11T00:51:24.994Z,19
2023-04-11T00:52:31.119Z,19
2023-04-11T00:53:37.274Z,19
2023-04-11T00:54:43.348Z,19
2023-04-11T00:55:49.458Z,19
2023-04-11T00:56:55.570Z,19
2023-04-11T00:58:01.691Z,19
2023-04-11T00:59:06.816Z,19
2023-04-11T01:00:12.928Z,19
2023-04-11T01:01:19.051Z,19
2023-04-11T01:02:25.154Z,19
2023-04-11T01:03:31.271Z,19
2023-04-11T01:04:37.379Z,19
2023-04-11T01:05:43.499Z,19
2023-04-11T01:06:48.642Z,19
2023-04-11T01:07:53.765Z,19
2023-04-11T01:08:58.908Z,19
2023-04-11T01:10:04.037Z,19
2023-04-11T01:11:10.153Z,19
2023-04-11T01:12:15.283Z,19
2023-04-11T01:13:21.386Z,19
2023-04-11T01:14:27.517Z,19
2023-04-11T01:15:33.627Z,19
2023-04-11T01:16:39.741Z,19
2023-04-11T01:17:45.858Z,19
2023-04-11T01:18:51.973Z,19
2023-04-11T01:19:58.079Z,19
2023-04-11T01:21:04.203Z,19
2023-04-11T01:22:10.317Z,19
2023-04-11T01:23:16.424Z,19
2023-04-11T01:24:22.776Z,19
2023-04-11T01:25:28.652Z,19
2023-04-11T01:26:33.797Z,19
2023-04-11T01:27:39.898Z,19
2023-04-11T01:28:46.010Z,19
2023-04-11T01:29:52.132Z,19
2023-04-11T01:30:58.237Z,19
2023-04-11T01:32:03.375Z,19
2023-04-11T01:33:08.510Z,19
2023-04-11T01:34:13.641Z,19
2023-04-11T01:35:18.772Z,19
2023-04-11T01:36:24.884Z,19
2023-04-11T01:38:37.116Z,19
2023-04-11T01:39:43.230Z,19
2023-04-11T01:40:49.344Z,18.9
2023-04-11T01:41:55.448Z,18.9
2023-04-11T01:43:01.562Z,19
2023-04-11T01:44:07.678Z,19
2023-04-11T01:45:13.797Z,18.9
2023-04-11T01:46:19.901Z,18.9
2023-04-11T01:47:26.018Z,18.9
2023-04-11T01:48:32.140Z,18.9
2023-04-11T01:49:37.262Z,19
2023-04-11T01:50:43.378Z,18.9
2023-04-11T01:51:49.492Z,18.9
2023-04-11T01:52:55.607Z,18.9
2023-04-11T01:54:01.717Z,18.9
2023-04-11T01:55:07.828Z,18.9
2023-04-11T01:56:13.940Z,18.9
2023-04-11T01:57:20.064Z,18.9
2023-04-11T01:58:25.201Z,18.9
2023-04-11T02:00:36.432Z,18.9
2023-04-11T02:01:42.547Z,18.9
2023-04-11T02:02:47.687Z,18.9
2023-04-11T02:03:52.810Z,18.9
2023-04-11T02:04:58.926Z,18.9
2023-04-11T02:06:05.055Z,18.9
2023-04-11T02:07:11.157Z,18.9
2023-04-11T02:08:17.273Z,18.9
2023-04-11T02:09:23.428Z,18.9
2023-04-11T02:10:29.502Z,18.9
2023-04-11T02:11:35.605Z,18.9
2023-04-11T02:12:41.745Z,19
2023-04-11T02:13:47.848Z,19
2023-04-11T02:14:53.952Z,19
2023-04-11T02:16:00.074Z,19.1
2023-04-11T02:17:06.183Z,19.2
2023-04-11T02:18:11.315Z,19.2
2023-04-11T02:19:17.416Z,19.3
2023-04-11T02:20:23.551Z,19.3
2023-04-11T02:21:29.653Z,19.3
2023-04-11T02:22:35.768Z,19.4
2023-04-11T02:23:41.882Z,19.5
2023-04-11T02:24:48.001Z,19.5
2023-04-11T02:25:53.138Z,19.6
2023-04-11T02:26:58.259Z,19.6
2023-04-11T02:28:04.383Z,19.6
2023-04-11T02:29:09.510Z,19.6
2023-04-11T02:30:14.657Z,19.7
2023-04-11T02:31:20.761Z,19.7
2023-04-11T02:32:26.872Z,19.7
2023-04-11T02:33:32.981Z,19.7
2023-04-11T02:34:39.104Z,19.7
2023-04-11T02:35:45.220Z,19.8
2023-04-11T02:36:51.324Z,19.8
2023-04-11T02:37:57.438Z,19.8
2023-04-11T02:39:03.559Z,19.8
2023-04-11T02:41:15.796Z,19.8
2023-04-11T02:42:21.899Z,19.8
2023-04-11T02:43:28.015Z,19.8
2023-04-11T02:44:33.135Z,19.8
2023-04-11T02:45:39.250Z,19.8
2023-04-11T02:46:45.378Z,19.8
2023-04-11T02:47:51.486Z,19.8
2023-04-11T02:48:57.602Z,19.8
2023-04-11T02:50:03.712Z,19.8
2023-04-11T02:51:09.828Z,19.8
2023-04-11T02:52:15.937Z,19.8
2023-04-11T02:53:21.072Z,19.8
2023-04-11T02:54:26.221Z,19.8
2023-04-11T02:55:32.315Z,19.8
2023-04-11T02:56:38.437Z,19.8
2023-04-11T02:57:44.545Z,19.8
2023-04-11T02:58:50.650Z,19.8
2023-04-11T02:59:56.765Z,19.8
2023-04-11T03:01:02.884Z,19.8
2023-04-11T03:02:09.006Z,19.7
2023-04-11T03:03:15.120Z,19.8
2023-04-11T03:04:21.224Z,19.7
2023-04-11T03:05:27.342Z,19.8
2023-04-11T03:06:33.457Z,19.7
2023-04-11T03:07:39.588Z,19.7
2023-04-11T03:08:44.700Z,19.7
2023-04-11T03:09:50.811Z,19.7
2023-04-11T03:10:56.929Z,19.7
2023-04-11T03:12:03.046Z,19.7
2023-04-11T03:13:09.150Z,19.7
2023-04-11T03:14:15.265Z,19.7
2023-04-11T03:15:21.387Z,19.7
2023-04-11T03:16:26.517Z,19.7
2023-04-11T03:17:31.642Z,19.7
2023-04-11T03:18:36.795Z,19.7
2023-04-11T03:19:41.923Z,19.7
2023-04-11T03:20:48.033Z,19.7
2023-04-11T03:21:53.161Z,19.7
2023-04-11T03:22:58.298Z,19.7
2023-04-11T03:24:04.414Z,19.6
2023-04-11T03:25:10.533Z,19.6
2023-04-11T03:26:16.649Z,19.6
2023-04-11T03:27:22.760Z,19.6
2023-04-11T03:28:28.876Z,19.6
2023-04-11T03:29:34.990Z,19.6
2023-04-11T03:30:41.100Z,19.6
2023-04-11T03:31:47.207Z,19.6
2023-04-11T03:32:53.329Z,19.6
2023-04-11T03:33:59.441Z,19.6
2023-04-11T03:35:05.559Z,19.6
2023-04-11T03:36:11.672Z,19.6
2023-04-11T03:37:17.786Z,19.6
2023-04-11T03:38:22.918Z,19.6
2023-04-11T03:39:29.028Z,19.6
2023-04-11T03:40:35.141Z,19.6
2023-04-11T03:41:41.259Z,19.6
2023-04-11T03:42:47.363Z,19.6
2023-04-11T03:43:53.490Z,19.5
2023-04-11T03:44:58.619Z,19.5
2023-04-11T03:46:03.749Z,19.5
2023-04-11T03:47:09.864Z,19.5
2023-04-11T03:48:15.959Z,19.5
2023-04-11T03:49:21.110Z,19.5
2023-04-11T03:50:26.244Z,19.5
2023-04-11T03:51:32.356Z,19.5
2023-04-11T03:52:38.467Z,19.5
2023-04-11T03:53:44.584Z,19.5
2023-04-11T03:54:50.699Z,19.5
2023-04-11T03:55:56.813Z,19.5
2023-04-11T03:57:02.923Z,19.5
2023-04-11T03:58:09.034Z,19.5
2023-04-11T03:59:15.149Z,19.5
2023-04-11T04:00:21.253Z,19.5
2023-04-11T04:01:27.372Z,19.5
2023-04-11T04:02:33.486Z,19.5
2023-04-11T04:03:39.622Z,19.5
2023-04-11T04:04:44.728Z,19.5
2023-04-11T04:05:50.845Z,19.5
2023-04-11T04:06:56.969Z,19.5
2023-04-11T04:08:03.077Z,19.5
2023-04-11T04:09:09.189Z,19.5
2023-04-11T04:10:15.314Z,19.5
2023-04-11T04:11:21.415Z,19.5
2023-04-11T04:12:26.559Z,19.5
2023-04-11T04:13:31.677Z,19.5
2023-04-11T04:14:36.803Z,19.5
2023-04-11T04:15:41.951Z,19.5
2023-04-11T04:16:48.047Z,19.4
2023-04-11T04:17:54.172Z,19.4
2023-04-11T04:19:00.286Z,19.5
2023-04-11T04:20:06.410Z,19.4
2023-04-11T04:21:12.524Z,19.5
2023-04-11T04:22:18.627Z,19.5
2023-04-11T04:23:24.745Z,19.4
2023-04-11T04:24:30.847Z,19.4
2023-04-11T04:25:36.967Z,19.5
2023-04-11T04:26:43.091Z,19.4
2023-04-11T04:27:49.249Z,19.4
2023-04-11T04:28:55.320Z,19.4
2023-04-11T04:30:00.465Z,19.5
2023-04-11T04:31:06.550Z,19.4
2023-04-11T04:32:12.659Z,19.4
2023-04-11T04:33:18.784Z,19.4
2023-04-11T04:34:24.897Z,19.4
2023-04-11T04:35:31.010Z,19.4
2023-04-11T04:36:37.143Z,19.4
2023-04-11T04:37:42.254Z,19.4
2023-04-11T04:38:47.394Z,19.4
2023-04-11T04:39:53.512Z,19.4
2023-04-11T04:40:58.637Z,19.4
2023-04-11T04:42:03.768Z,19.4
2023-04-11T04:43:09.902Z,19.4
2023-04-11T04:44:16.000Z,19.4
2023-04-11T04:45:22.110Z,19.4
2023-04-11T04:46:28.234Z,19.4
2023-04-11T04:47:34.368Z,19.4
2023-04-11T04:48:40.451Z,19.4
2023-04-11T04:49:46.573Z,19.4
2023-04-11T04:50:52.910Z,19.4
2023-04-11T04:51:58.798Z,19.4
2023-04-11T04:53:03.937Z,19.4
2023-04-11T04:54:10.045Z,19.4
2023-04-11T04:55:16.151Z,19.4
2023-04-11T04:56:22.278Z,19.4
2023-04-11T04:57:28.394Z,19.4
2023-04-11T04:58:34.509Z,19.4
2023-04-11T04:59:40.618Z,19.4
2023-04-11T05:00:46.752Z,19.4
2023-04-11T05:01:52.838Z,19.4
2023-04-11T05:02:58.961Z,19.4
2023-04-11T05:04:04.080Z,19.4
2023-04-11T05:05:09.220Z,19.4
2023-04-11T05:06:15.335Z,19.4
2023-04-11T05:07:21.450Z,19.4
2023-04-11T05:08:27.563Z,19.4
2023-04-11T05:09:33.681Z,19.4
2023-04-11T05:10:39.790Z,19.4
2023-04-11T05:11:45.908Z,19.4
2023-04-11T05:12:52.022Z,19.4
2023-04-11T05:13:58.128Z,19.4
2023-04-11T05:15:04.248Z,19.4
2023-04-11T05:16:10.367Z,19.4
2023-04-11T05:17:16.475Z,19.4
2023-04-11T05:18:22.591Z,19.4
2023-04-11T05:19:27.715Z,19.4
2023-04-11T05:20:33.841Z,19.4
2023-04-11T05:21:39.948Z,19.4
2023-04-11T05:22:46.062Z,19.4
2023-04-11T05:23:52.175Z,19.4
2023-04-11T05:24:58.286Z,19.4
2023-04-11T05:26:04.403Z,19.4
2023-04-11T05:27:10.520Z,19.4
2023-04-11T05:28:15.669Z,19.4
2023-04-11T05:29:20.790Z,19.4
2023-04-11T05:30:25.920Z,19.4
2023-04-11T05:31:31.050Z,19.4
2023-04-11T05:32:37.156Z,19.4
2023-04-11T05:33:42.304Z,19.4
2023-04-11T05:34:47.421Z,19.4
2023-04-11T05:35:53.538Z,19.4
2023-04-11T05:36:59.664Z,19.4
2023-04-11T05:38:05.794Z,19.4
2023-04-11T05:39:11.885Z,19.4
2023-04-11T05:40:18.006Z,19.4
2023-04-11T05:41:24.140Z,19.4
2023-04-11T05:42:30.222Z,19.4
2023-04-11T05:43:36.346Z,19.4
2023-04-11T05:44:42.453Z,19.4
2023-04-11T05:45:48.563Z,19.4
2023-04-11T05:46:54.686Z,19.4
2023-04-11T05:48:00.796Z,19.4
2023-04-11T05:49:05.937Z,19.4
2023-04-11T05:50:12.044Z,19.4
2023-04-11T05:51:18.154Z,19.4
2023-04-11T05:52:24.273Z,19.4
2023-04-11T05:53:30.385Z,19.4
2023-04-11T05:54:36.491Z,19.4
2023-04-11T05:55:42.617Z,19.4
2023-04-11T05:56:47.748Z,19.4
2023-04-11T05:57:52.877Z,19.4
2023-04-11T05:58:58.983Z,19.4
2023-04-11T06:00:05.097Z,19.4
2023-04-11T06:01:10.242Z,19.4
2023-04-11T06:02:15.384Z,19.4
2023-04-11T06:03:21.492Z,19.4
2023-04-11T06:04:27.593Z,19.4
2023-04-11T06:05:33.722Z,19.4
2023-04-11T06:06:39.835Z,19.4
2023-04-11T06:07:45.934Z,19.4
2023-04-11T06:08:52.060Z,19.4
2023-04-11T06:09:58.160Z,19.4
2023-04-11T06:11:04.275Z,19.4
2023-04-11T06:12:10.400Z,19.4
2023-04-11T06:13:16.505Z,19.4
2023-04-11T06:14:22.612Z,19.4
2023-04-11T06:15:28.757Z,19.4
2023-04-11T06:16:33.862Z,19.4
2023-04-11T06:17:39.979Z,19.4
2023-04-11T06:18:46.091Z,19.4
2023-04-11T06:19:52.216Z,19.4
2023-04-11T06:20:58.317Z,19.4
2023-04-11T06:22:04.430Z,19.4
2023-04-11T06:23:10.548Z,19.4
2023-04-11T06:24:15.682Z,19.4
2023-04-11T06:25:20.823Z,19.4
2023-04-11T06:26:25.947Z,19.4
2023-04-11T06:27:31.078Z,19.4
2023-04-11T06:28:37.185Z,19.4
2023-04-11T06:29:43.308Z,19.4
2023-04-11T06:30:49.429Z,19.4
2023-04-11T06:31:55.529Z,19.4
2023-04-11T06:33:01.657Z,19.4
2023-04-11T06:34:07.773Z,19.4
2023-04-11T06:35:13.884Z,19.4
2023-04-11T06:36:19.988Z,19.4
2023-04-11T06:37:26.110Z,19.4
2023-04-11T06:38:32.218Z,19.4
2023-04-11T06:39:38.330Z,19.4
2023-04-11T06:40:44.447Z,19.4
2023-04-11T06:41:49.575Z,19.4
2023-04-11T06:42:55.696Z,19.4
2023-04-11T06:44:01.809Z,19.4
2023-04-11T06:45:07.921Z,19.4
2023-04-11T06:46:14.046Z,19.4
2023-04-11T06:47:20.149Z,19.4
2023-04-11T06:48:26.265Z,19.4
2023-04-11T06:49:31.398Z,19.4
2023-04-11T06:50:36.528Z,19.4
2023-04-11T06:51:42.647Z,19.4
2023-04-11T06:52:47.786Z,19.4
2023-04-11T06:53:52.905Z,19.4
2023-04-11T06:54:59.025Z,19.4
2023-04-11T06:56:05.131Z,19.4
2023-04-11T06:57:11.245Z,19.4
2023-04-11T06:58:17.350Z,19.4
2023-04-11T06:59:23.486Z,19.4
2023-04-11T07:00:29.580Z,19.4
2023-04-11T07:01:35.690Z,19.4
2023-04-11T07:02:41.814Z,19.4
2023-04-11T07:03:47.932Z,19.4
2023-04-11T07:04:54.041Z,19.4
2023-04-11T07:06:00.155Z,19.4
2023-04-11T07:07:06.270Z,19.4
2023-04-11T07:08:11.409Z,19.4
2023-04-11T07:09:17.521Z,19.4
2023-04-11T07:10:23.626Z,19.4
2023-04-11T07:11:29.740Z,19.4
2023-04-11T07:12:35.853Z,19.4
2023-04-11T07:13:41.990Z,19.4
2023-04-11T07:14:48.083Z,19.4
2023-04-11T07:15:53.236Z,19.4
2023-04-11T07:16:58.355Z,19.4
2023-04-11T07:18:04.469Z,19.4
2023-04-11T07:19:10.599Z,19.4
2023-04-11T07:20:16.710Z,19.4
2023-04-11T07:22:28.930Z,19.4
2023-04-11T07:23:35.039Z,19.4
2023-04-11T07:24:41.163Z,19.4
2023-04-11T07:25:47.274Z,19.4
2023-04-11T07:26:53.509Z,19.4
2023-04-11T07:27:59.492Z,19.4
2023-04-11T07:29:05.608Z,19.4
2023-04-11T07:30:11.732Z,19.4
2023-04-11T07:31:16.874Z,19.4
2023-04-11T07:32:22.981Z,19.4
2023-04-11T07:33:29.082Z,19.4
2023-04-11T07:34:35.203Z,19.4
2023-04-11T07:35:41.320Z,19.4
2023-04-11T07:36:47.430Z,19.4
2023-04-11T07:37:53.544Z,19.4
2023-04-11T07:38:59.658Z,19.4
2023-04-11T07:40:04.779Z,19.4
2023-04-11T07:41:09.909Z,19.4
2023-04-11T07:42:15.062Z,19.4
2023-04-11T07:43:20.176Z,19.4
2023-04-11T07:44:26.298Z,19.4
2023-04-11T07:46:38.526Z,19.4
2023-04-11T07:47:44.630Z,19.4
2023-04-11T07:49:56.878Z,19.4
2023-04-11T07:51:02.988Z,19.4
2023-04-11T07:52:09.090Z,19.4
2023-04-11T07:53:15.206Z,19.4
2023-04-11T07:54:21.315Z,19.4
2023-04-11T07:55:27.439Z,19.4
2023-04-11T07:56:32.576Z,19.4
2023-04-11T07:57:37.701Z,19.4
2023-04-11T07:58:42.840Z,19.4
2023-04-11T07:59:47.964Z,19.4
2023-04-11T08:00:54.086Z,19.4
2023-04-11T08:02:00.195Z,19.4
2023-04-11T08:03:06.302Z,19.4
2023-04-11T08:04:12.428Z,19.4
2023-04-11T08:05:18.529Z,19.4
2023-04-11T08:06:24.651Z,19.4
2023-04-11T08:07:30.756Z,19.4
2023-04-11T08:08:36.892Z,19.4
2023-04-11T08:09:42.993Z,19.4
2023-04-11T08:10:48.116Z,19.4
2023-04-11T08:11:53.267Z,19.4
2023-04-11T08:12:59.378Z,19.4
2023-04-11T08:14:05.485Z,19.4
2023-04-11T08:15:11.615Z,19.4
2023-04-11T08:16:17.704Z,19.4
2023-04-11T08:17:23.833Z,19.4
2023-04-11T08:18:29.941Z,19.4
2023-04-11T08:20:42.159Z,19.4
2023-04-11T08:21:48.288Z,19.4
2023-04-11T08:22:54.386Z,19.4
2023-04-11T08:24:00.514Z,19.4
2023-04-11T08:25:06.625Z,19.4
2023-04-11T08:26:11.774Z,19.4
2023-04-11T08:27:17.868Z,19.4
2023-04-11T08:28:23.983Z,19.4
2023-04-11T08:29:30.098Z,19.4
2023-04-11T08:30:36.198Z,19.4
2023-04-11T08:31:42.318Z,19.4
2023-04-11T08:32:48.439Z,19.4
2023-04-11T08:33:53.596Z,19.4
2023-04-11T08:34:58.705Z,19.4
2023-04-11T08:36:03.842Z,19.4
2023-04-11T08:37:09.961Z,19.4
2023-04-11T08:38:15.180Z,19.4
2023-04-11T08:39:20.282Z,19.4
2023-04-11T08:40:26.334Z,19.4
2023-04-11T08:41:32.448Z,19.4
2023-04-11T08:42:38.569Z,19.3
2023-04-11T08:43:44.672Z,19.3
2023-04-11T08:44:50.784Z,19.4
2023-04-11T08:45:56.893Z,19.3
2023-04-11T08:47:03.019Z,19.3
2023-04-11T08:48:09.126Z,19.3
2023-04-11T08:49:15.233Z,19.3
2023-04-11T08:50:21.360Z,19.3
2023-04-11T08:51:27.456Z,19.4
2023-04-11T08:52:33.574Z,19.3
2023-04-11T08:53:38.720Z,19.4
2023-04-11T08:54:44.827Z,19.3
2023-04-11T08:55:51.011Z,19.4
2023-04-11T08:56:57.060Z,19.4
2023-04-11T08:58:03.207Z,19.3
2023-04-11T08:59:09.284Z,19.3
2023-04-11T09:00:15.400Z,19.3
2023-04-11T09:01:20.538Z,19.3
2023-04-11T09:02:25.667Z,19.3
2023-04-11T09:04:37.891Z,19.3
2023-04-11T09:05:44.006Z,19.3
2023-04-11T09:06:50.116Z,19.3
2023-04-11T09:07:56.230Z,19.3
2023-04-11T09:09:02.342Z,19.3
2023-04-11T09:10:08.712Z,19.3
2023-04-11T09:11:14.576Z,19.3
2023-04-11T09:12:20.692Z,19.3
2023-04-11T09:13:26.868Z,19.3
2023-04-11T09:15:39.029Z,19.3
2023-04-11T09:16:44.161Z,19.3
2023-04-11T09:17:49.288Z,19.3
2023-04-11T09:18:54.436Z,19.3
2023-04-11T09:21:05.707Z,19.3
2023-04-11T09:22:11.788Z,19.3
2023-04-11T09:23:17.910Z,19.3
2023-04-11T09:24:24.012Z,19.3
2023-04-11T09:26:36.241Z,19.3
2023-04-11T09:27:42.362Z,19.3
2023-04-11T09:28:48.470Z,19.3
2023-04-11T09:29:54.586Z,19.3
2023-04-11T09:31:00.709Z,19.3
2023-04-11T09:32:06.812Z,19.3
2023-04-11T09:33:12.956Z,19.3
2023-04-11T09:34:18.057Z,19.3
2023-04-11T09:35:24.180Z,19.3
2023-04-11T09:36:30.320Z,19.3
2023-04-11T09:37:36.409Z,19.3
2023-04-11T09:38:42.520Z,19.3
2023-04-11T09:39:48.631Z,19.3
2023-04-11T09:40:54.730Z,19.3
2023-04-11T09:43:06.984Z,19.3
2023-04-11T09:44:13.084Z,19.3
2023-04-11T09:45:18.209Z,19.3
2023-04-11T09:46:23.343Z,19.3
2023-04-11T09:47:28.493Z,19.3
2023-04-11T09:48:33.644Z,19.3
2023-04-11T09:49:39.726Z,19.3
2023-04-11T09:50:45.862Z,19.3
2023-04-11T09:51:51.988Z,19.3
2023-04-11T09:54:04.177Z,19.3
2023-04-11T09:55:10.297Z,19.3
2023-04-11T09:56:16.444Z,19.4
2023-04-11T09:57:22.527Z,19.4
2023-04-11T09:58:28.658Z,19.4
2023-04-11T10:00:40.873Z,19.4
2023-04-11T10:01:46.012Z,19.4
2023-04-11T10:02:51.146Z,19.4
2023-04-11T10:03:57.249Z,19.4
2023-04-11T10:06:09.466Z,19.4
2023-04-11T10:07:15.587Z,19.4
2023-04-11T10:08:21.694Z,19.4
2023-04-11T10:09:27.815Z,19.4
2023-04-11T10:10:33.932Z,19.4
2023-04-11T10:11:40.040Z,19.3
2023-04-11T10:12:46.161Z,19.3
2023-04-11T10:13:52.297Z,19.4
2023-04-11T10:14:58.387Z,19.3
2023-04-11T10:16:04.496Z,19.4
2023-04-11T10:17:09.618Z,19.4
2023-04-11T10:18:15.764Z,19.4
2023-04-11T10:19:21.862Z,19.4
2023-04-11T10:20:27.973Z,19.4
2023-04-11T10:21:34.080Z,19.4
2023-04-11T10:22:40.189Z,19.4
2023-04-11T10:23:46.314Z,19.4
2023-04-11T10:24:52.421Z,19.4
2023-04-11T10:25:58.550Z,19.4
2023-04-11T10:29:15.904Z,19.4
2023-04-11T10:30:21.043Z,19.4
2023-04-11T10:31:26.163Z,19.4
2023-04-11T10:32:31.298Z,19.3
2023-04-11T10:33:37.444Z,19.3
2023-04-11T10:34:42.558Z,19.3
2023-04-11T10:35:48.653Z,19.3
2023-04-11T10:36:54.772Z,19.3
2023-04-11T10:39:07.007Z,19.3
2023-04-11T10:40:13.121Z,19.3
2023-04-11T10:41:19.224Z,19.3
2023-04-11T10:42:25.339Z,19.3
2023-04-11T10:43:31.543Z,19.3
2023-04-11T10:44:37.573Z,19.3
2023-04-11T10:45:43.714Z,19.3
2023-04-11T10:46:49.945Z,19.3
2023-04-11T10:47:56.058Z,19.3
2023-04-11T10:49:01.250Z,19.3
2023-04-11T10:50:07.161Z,19.3
2023-04-11T10:52:19.527Z,19.3
2023-04-11T10:53:25.655Z,19.3
2023-04-11T10:54:31.629Z,19.3
2023-04-11T10:55:37.912Z,19.3
2023-04-11T10:56:43.998Z,19.3
2023-04-11T10:57:49.118Z,19.3
2023-04-11T10:58:54.239Z,19.3
2023-04-11T10:59:59.453Z,19.3
2023-04-11T11:01:04.540Z,19.3
2023-04-11T11:02:10.579Z,19.3
2023-04-11T11:04:22.917Z,19.3
2023-04-11T11:09:53.448Z,19.3
2023-04-11T11:10:59.402Z,19.3
2023-04-11T11:13:11.729Z,19.3
2023-04-11T11:14:17.931Z,19.3
2023-04-11T11:16:29.195Z,19.3
2023-04-11T11:18:41.382Z,19.3
2023-04-11T11:19:47.466Z,19.3
2023-04-11T11:20:53.562Z,19.3
2023-04-11T11:23:05.830Z,19.3
2023-04-11T11:24:11.900Z,19.3
2023-04-11T11:25:17.879Z,19.3
2023-04-11T11:26:24.112Z,19.3
2023-04-11T11:28:36.438Z,19.3
2023-04-11T11:29:41.585Z,19.3
2023-04-11T11:30:47.624Z,19.3
2023-04-11T11:31:53.747Z,19.3
2023-04-11T11:34:06.098Z,19.3
2023-04-11T11:37:25.860Z,19.3
2023-04-11T11:38:30.493Z,19.3
2023-04-11T11:39:35.646Z,19.3
2023-04-11T11:40:40.739Z,19.3
2023-04-11T11:41:46.839Z,19.3
2023-04-11T11:42:52.945Z,19.3
2023-04-11T11:43:59.070Z,19.3
2023-04-11T11:45:05.143Z,19.3
2023-04-11T11:46:11.254Z,19.3
2023-04-11T11:47:17.438Z,19.3
2023-04-11T11:50:35.752Z,19.3
2023-04-11T11:51:41.828Z,19.3
2023-04-11T11:52:47.951Z,19.3
2023-04-11T11:53:54.060Z,19.3
2023-04-11T11:54:59.214Z,19.3
2023-04-11T11:56:05.293Z,19.3
2023-04-11T11:57:11.467Z,19.3
2023-04-11T11:58:17.582Z,19.3
2023-04-11T11:59:23.656Z,19.3
2023-04-11T12:01:35.901Z,19.3
2023-04-11T12:02:41.840Z,19.3
2023-04-11T12:03:48.067Z,19.3
2023-04-11T12:04:54.249Z,19.3
2023-04-11T12:07:05.512Z,19.3
2023-04-11T12:08:10.665Z,19.3
2023-04-11T12:10:21.838Z,19.3
2023-04-11T12:11:26.968Z,19.3
2023-04-11T12:12:32.153Z,19.3
2023-04-11T12:13:37.240Z,19.3
2023-04-11T12:14:42.379Z,19.3
2023-04-11T12:15:48.496Z,19.3
2023-04-11T12:16:54.631Z,19.3
2023-04-11T12:18:00.572Z,19.3
2023-04-11T12:19:06.878Z,19.3
2023-04-11T12:20:13.002Z,19.3
2023-04-11T12:21:19.050Z,19.3
2023-04-11T12:22:25.179Z,19.3
2023-04-11T12:23:31.319Z,19.3
2023-04-11T12:24:37.257Z,19.3
2023-04-11T12:25:42.391Z,19.3
2023-04-11T12:26:47.687Z,19.3
2023-04-11T12:27:53.809Z,19.3
2023-04-11T12:28:59.902Z,19.3
2023-04-11T12:30:06.046Z,19.3
2023-04-11T12:31:12.171Z,19.3
2023-04-11T12:32:18.303Z,19.3
2023-04-11T12:33:24.362Z,19.3
2023-04-11T12:34:30.521Z,19.3
2023-04-11T12:35:36.599Z,19.3
2023-04-11T12:36:42.687Z,19.3
2023-04-11T12:37:47.694Z,19.3
2023-04-11T12:38:52.807Z,19.3
2023-04-11T12:39:59.084Z,19.3
2023-04-11T12:41:05.173Z,19.3
2023-04-11T12:42:11.287Z,19.3
2023-04-11T12:43:17.423Z,19.3
2023-04-11T12:53:12.462Z,19.2
2023-04-11T12:54:17.423Z,19.3
2023-04-11T12:55:23.782Z,19.2
2023-04-11T12:56:29.796Z,19.2
2023-04-11T12:57:35.943Z,19.3
2023-04-11T12:58:41.089Z,19.3
2023-04-11T12:59:46.213Z,19.2
2023-04-11T13:00:52.319Z,19.3
2023-04-11T13:01:58.431Z,19.2
2023-04-11T13:03:04.493Z,19.2
2023-04-11T13:04:10.652Z,19.2
2023-04-11T13:05:16.809Z,19.2
2023-04-11T13:06:22.871Z,19.2
2023-04-11T13:07:28.973Z,19.2
2023-04-11T13:08:35.131Z,19.2
2023-04-11T13:10:47.340Z,19.2
2023-04-11T13:11:53.470Z,19.2
2023-04-11T13:13:00.100Z,19.2
2023-04-11T13:14:04.685Z,19.2
2023-04-11T13:15:10.778Z,19.2
2023-04-11T13:16:17.105Z,19.2
2023-04-11T13:17:22.983Z,19.2
2023-04-11T13:18:29.155Z,19.2
2023-04-11T13:19:35.242Z,19.2
2023-04-11T13:20:41.391Z,19.2
2023-04-11T13:22:53.708Z,19.2
2023-04-11T13:23:58.749Z,19.2
2023-04-11T13:25:04.162Z,19.2
2023-04-11T13:26:09.990Z,19.2
2023-04-11T13:27:16.120Z,19.2
2023-04-11T13:28:22.243Z,19.2
2023-04-11T13:29:28.313Z,19.2
2023-04-11T13:30:34.436Z,19.2
2023-04-11T13:31:40.607Z,19.2
2023-04-11T13:32:46.715Z,19.2
2023-04-11T13:33:52.771Z,19.2
2023-04-11T13:34:58.809Z,19.2
2023-04-11T13:36:04.082Z,19.2
2023-04-11T13:37:09.361Z,19.2
2023-04-11T13:38:14.635Z,19.2
2023-04-11T13:39:19.428Z,19.2
2023-04-11T13:40:25.528Z,19.2
2023-04-11T13:41:31.653Z,19.2
2023-04-11T13:42:37.598Z,19.2
2023-04-11T13:43:43.729Z,19.2
2023-04-11T13:44:50.047Z,19.2
2023-04-11T13:45:55.990Z,19.2
2023-04-11T13:47:02.210Z,19.2
2023-04-11T13:48:08.676Z,19.2
2023-04-11T13:49:14.464Z,19.2
2023-04-11T13:50:19.625Z,19.2
2023-04-11T13:51:24.730Z,19.2
2023-04-11T13:52:30.895Z,19.2
2023-04-11T13:53:37.008Z,19.2
2023-04-11T13:54:43.038Z,19.2
2023-04-11T13:55:49.199Z,19.2
2023-04-11T13:56:55.306Z,19.2
2023-04-11T13:58:01.457Z,19.2
2023-04-11T13:59:07.388Z,19.2
2023-04-11T14:00:13.590Z,19.2
2023-04-11T14:01:19.699Z,19.2
2023-04-11T14:02:25.803Z,19.2
2023-04-11T14:03:31.954Z,19.2
2023-04-11T14:04:37.943Z,19.2
2023-04-11T14:05:43.236Z,19.2
2023-04-11T14:06:49.161Z,19.2
2023-04-11T14:07:55.448Z,19.2
2023-04-11T14:09:01.511Z,19.2
2023-04-11T14:10:07.677Z,19.2
2023-04-11T14:11:13.799Z,19.2
2023-04-11T14:12:19.852Z,19.2
2023-04-11T14:13:25.100Z,19.2
2023-04-11T14:14:30.198Z,19.2
2023-04-11T14:15:35.260Z,19.2
2023-04-11T14:16:40.421Z,19.2
2023-04-11T14:17:46.555Z,19.2
2023-04-11T14:18:52.660Z,19.2
2023-04-11T14:19:58.817Z,19.2
2023-04-11T14:21:04.877Z,19.2
2023-04-11T14:22:10.997Z,19.2
2023-04-11T14:23:17.097Z,19.2
2023-04-11T14:24:23.053Z,19.2
2023-04-11T14:25:29.353Z,19.2
2023-04-11T14:26:35.427Z,19.2
2023-04-11T14:27:41.584Z,19.2
2023-04-11T14:28:47.607Z,19.2
2023-04-11T14:29:53.794Z,19.2
2023-04-11T14:30:58.917Z,19.2
2023-04-11T14:32:05.018Z,19.2
2023-04-11T14:33:11.161Z,19.2
2023-04-11T14:34:17.083Z,19.2
2023-04-11T14:35:23.378Z,19.2
2023-04-11T14:36:29.410Z,19.2
2023-04-11T14:37:35.607Z,19.2
2023-04-11T14:38:40.561Z,19.2
2023-04-11T14:39:45.902Z,19.2
2023-04-11T14:40:51.049Z,19.2
2023-04-11T14:41:56.124Z,19.2
2023-04-11T14:43:02.238Z,19.2
2023-04-11T14:44:08.368Z,19.2
2023-04-11T14:45:14.488Z,19.2
2023-04-11T14:46:20.400Z,19.2
2023-04-11T14:47:26.533Z,19.2
2023-04-11T14:48:32.841Z,19.2
2023-04-11T14:49:39.034Z,19.2
2023-04-11T14:50:44.963Z,19.2
2023-04-11T14:51:51.152Z,19.2
2023-04-11T14:52:57.258Z,19.2
2023-04-11T14:54:03.374Z,19.2
2023-04-11T14:55:09.489Z,19.2
2023-04-11T14:56:14.596Z,19.2
2023-04-11T14:57:20.724Z,19.2
2023-04-11T14:58:26.908Z,19.2
2023-04-11T14:59:32.845Z,19.2
2023-04-11T15:00:39.061Z,19.2
2023-04-11T15:01:45.302Z,19.2
2023-04-11T15:02:51.313Z,19.2
2023-04-11T15:03:56.343Z,19.2
2023-04-11T15:05:01.604Z,19.2
2023-04-11T15:06:07.689Z,19.2
2023-04-11T15:07:12.872Z,19.2
2023-04-11T15:08:17.970Z,19.1
2023-04-11T15:09:24.133Z,19.1
2023-04-11T15:10:30.206Z,19.1
2023-04-11T15:11:36.286Z,19.1
2023-04-11T15:12:42.400Z,19.1
2023-04-11T15:13:48.358Z,19.1
2023-04-11T15:14:54.627Z,19.1
2023-04-11T15:16:00.724Z,19.1
2023-04-11T15:17:06.840Z,19.1
2023-04-11T15:18:12.995Z,19
2023-04-11T15:19:19.083Z,19.1
2023-04-11T15:20:25.204Z,19
2023-04-11T15:21:31.159Z,19
2023-04-11T15:22:36.389Z,19
2023-04-11T15:23:42.586Z,19
2023-04-11T15:24:48.689Z,19
2023-04-11T15:25:54.632Z,19
2023-04-11T15:27:00.915Z,19
2023-04-11T15:28:07.049Z,19
2023-04-11T15:29:13.137Z,19
2023-04-11T15:30:18.312Z,19
2023-04-11T15:31:23.221Z,19
2023-04-11T15:32:29.388Z,19
2023-04-11T15:33:34.592Z,19
2023-04-11T15:34:39.784Z,19